Time;durP1;ratioP1;P1;durP2;ratioP2;P2;SDS_P1;SDS_P2;PMS_P1;PMS_P2;Temp;Humidity;BMP_temperature;BMP_pressure;BME280_temperature;BME280_humidity;BME280_pressure;Samples;Min_cycle;Max_cycle;Signal;HPM_P1;HPM_P2
2021/11/22 00:02:20;;;;;;;11.88;9.65;;;5.50;99.90;;;;;;5074245;28;20269;-69
2021/11/22 00:04:46;;;;;;;12.15;10.43;;;5.50;99.90;;;;;;5073725;28;20547;-69
2021/11/22 00:07:15;;;;;;;12.27;10.00;;;5.50;99.90;;;;;;5074229;28;20215;-69
2021/11/22 00:09:42;;;;;;;12.32;9.90;;;5.50;99.90;;;;;;5073874;28;20224;-69
2021/11/22 00:12:09;;;;;;;10.95;9.25;;;5.50;99.90;;;;;;5074028;28;20250;-69
2021/11/22 00:14:37;;;;;;;12.00;9.60;;;5.50;99.90;;;;;;5074108;28;20200;-69
2021/11/22 00:17:03;;;;;;;11.55;8.77;;;5.60;99.90;;;;;;5073708;28;20253;-69
2021/11/22 00:19:30;;;;;;;8.20;7.38;;;5.50;99.90;;;;;;5072170;28;20200;-69
2021/11/22 00:21:56;;;;;;;10.32;7.60;;;5.50;99.90;;;;;;5073656;28;20592;-69
2021/11/22 00:24:23;;;;;;;7.90;7.10;;;5.50;99.90;;;;;;5073688;28;20204;-69
2021/11/22 00:26:49;;;;;;;9.10;8.15;;;5.50;99.90;;;;;;5073886;28;20199;-69
2021/11/22 00:29:16;;;;;;;10.60;8.70;;;5.60;99.90;;;;;;5073673;28;20204;-69
2021/11/22 00:31:46;;;;;;;8.77;7.65;;;5.60;99.90;;;;;;5073427;28;20203;-69
2021/11/22 00:34:13;;;;;;;8.75;7.50;;;5.50;99.90;;;;;;5073599;28;20191;-69
2021/11/22 00:36:39;;;;;;;8.45;7.22;;;5.60;99.90;;;;;;5073596;28;20192;-69
2021/11/22 00:39:06;;;;;;;8.60;7.28;;;5.60;99.90;;;;;;5073632;28;20253;-68
2021/11/22 00:41:32;;;;;;;8.45;7.55;;;5.60;99.90;;;;;;5073390;28;20547;-68
2021/11/22 00:43:59;;;;;;;7.65;6.88;;;5.60;99.90;;;;;;5073252;28;20199;-68
2021/11/22 00:46:26;;;;;;;8.10;7.10;;;5.60;99.90;;;;;;5073263;28;20233;-68
2021/11/22 00:48:53;;;;;;;10.65;8.75;;;5.60;99.90;;;;;;5072929;28;20239;-68
2021/11/22 00:51:19;;;;;;;8.23;7.13;;;5.60;99.90;;;;;;5073121;28;20208;-68
2021/11/22 00:53:47;;;;;;;8.65;7.55;;;5.70;99.90;;;;;;5073036;28;20220;-68
2021/11/22 00:56:16;;;;;;;9.48;7.88;;;5.60;99.90;;;;;;5073205;28;20203;-68
2021/11/22 00:58:44;;;;;;;8.35;7.45;;;5.60;99.90;;;;;;5072995;28;20196;-68
2021/11/22 01:01:10;;;;;;;7.75;6.95;;;5.60;99.90;;;;;;5073182;28;20667;-68
2021/11/22 01:03:37;;;;;;;8.93;7.32;;;5.60;99.90;;;;;;5072837;28;20204;-68
2021/11/22 01:06:03;;;;;;;9.07;7.43;;;5.50;99.90;;;;;;5073389;28;20200;-68
2021/11/22 01:08:30;;;;;;;9.80;7.97;;;5.50;99.90;;;;;;5073157;28;20663;-68
2021/11/22 01:10:56;;;;;;;12.02;8.40;;;5.50;99.90;;;;;;5073000;28;20220;-68
2021/11/22 01:13:23;;;;;;;11.23;7.90;;;5.50;99.90;;;;;;5073064;28;20640;-69
2021/11/22 01:15:50;;;;;;;10.60;8.38;;;5.50;99.90;;;;;;5073126;28;20192;-68
2021/11/22 01:18:16;;;;;;;10.52;8.32;;;5.50;99.90;;;;;;5071646;28;20210;-68
2021/11/22 01:20:43;;;;;;;10.18;8.00;;;5.60;99.90;;;;;;5072915;28;20203;-69
2021/11/22 01:23:13;;;;;;;11.35;7.88;;;5.60;99.90;;;;;;5073211;28;20208;-69
2021/11/22 01:25:43;;;;;;;10.13;8.60;;;5.50;99.90;;;;;;5073107;28;20218;-69
2021/11/22 01:28:09;;;;;;;8.00;7.20;;;5.60;99.90;;;;;;5073248;28;20570;-69
2021/11/22 01:30:36;;;;;;;8.77;7.07;;;5.60;99.90;;;;;;5071566;28;20564;-69
2021/11/22 01:33:03;;;;;;;10.80;7.38;;;5.50;99.90;;;;;;5073074;28;20211;-69
2021/11/22 01:35:29;;;;;;;9.13;7.40;;;5.50;99.90;;;;;;5073213;28;20204;-69
2021/11/22 01:37:56;;;;;;;8.18;6.90;;;5.50;99.90;;;;;;5076548;28;20204;-69
2021/11/22 01:40:26;;;;;;;10.52;7.45;;;5.50;99.90;;;;;;5076834;28;20204;-69
2021/11/22 01:42:53;;;;;;;8.52;7.65;;;5.50;99.90;;;;;;5076600;28;20227;-69
2021/11/22 01:45:21;;;;;;;11.70;7.75;;;5.50;99.90;;;;;;5076263;28;20207;-69
2021/11/22 01:47:47;;;;;;;12.80;8.35;;;5.60;99.90;;;;;;5076356;28;20208;-69
2021/11/22 01:50:17;;;;;;;9.38;7.78;;;5.50;99.90;;;;;;5076120;28;20595;-69
2021/11/22 01:52:44;;;;;;;15.18;9.50;;;5.60;99.90;;;;;;5076059;28;20651;-69
2021/11/22 01:55:14;;;;;;;11.30;7.80;;;5.60;99.90;;;;;;5076348;28;20203;-69
2021/11/22 01:57:42;;;;;;;14.18;8.55;;;5.60;99.90;;;;;;5076458;28;20576;-69
2021/11/22 02:00:20;;;;;;;11.20;8.13;;;5.60;99.90;;;;;;5076234;28;20199;-69
2021/11/22 02:02:46;;;;;;;12.02;8.75;;;5.50;99.90;;;;;;5076388;28;20268;-69
2021/11/22 02:05:13;;;;;;;14.98;9.10;;;5.60;99.90;;;;;;5076037;28;20204;-69
2021/11/22 02:07:39;;;;;;;14.68;9.18;;;5.60;99.90;;;;;;5076029;28;20694;-69
2021/11/22 02:10:08;;;;;;;15.55;9.15;;;5.60;99.90;;;;;;5076060;28;20675;-69
2021/11/22 02:12:35;;;;;;;12.40;9.20;;;5.60;99.90;;;;;;5075922;28;20616;-69
2021/11/22 02:15:02;;;;;;;14.85;9.70;;;5.70;99.90;;;;;;5076094;28;20196;-69
2021/11/22 02:17:29;;;;;;;13.75;9.20;;;5.60;99.90;;;;;;5076186;28;20602;-69
2021/11/22 02:20:02;;;;;;;12.52;9.07;;;5.60;99.90;;;;;;5076280;28;20257;-69
2021/11/22 02:22:33;;;;;;;12.43;8.80;;;5.70;99.90;;;;;;5074545;28;20212;-69
2021/11/22 02:25:03;;;;;;;18.48;9.93;;;5.70;99.90;;;;;;5075702;28;20690;-69
2021/11/22 02:27:31;;;;;;;17.63;9.45;;;5.60;99.90;;;;;;5075979;28;20208;-69
2021/11/22 02:29:59;;;;;;;13.82;9.40;;;5.60;99.90;;;;;;5075708;28;20230;-69
2021/11/22 02:32:25;;;;;;;16.73;9.48;;;5.60;99.90;;;;;;5075518;28;20556;-69
2021/11/22 02:34:52;;;;;;;17.52;10.25;;;5.70;99.90;;;;;;5074178;28;20566;-69
2021/11/22 02:37:18;;;;;;;17.42;10.20;;;5.70;99.90;;;;;;5075876;28;20200;-69
2021/11/22 02:39:45;;;;;;;19.17;10.88;;;5.70;99.90;;;;;;5075525;28;20250;-69
2021/11/22 02:42:28;;;;;;;17.65;10.18;;;5.70;99.90;;;;;;5075540;28;20204;-69
2021/11/22 02:44:56;;;;;;;22.00;11.88;;;5.80;99.90;;;;;;5074348;28;20753;-69
2021/11/22 02:47:23;;;;;;;16.27;10.98;;;5.80;99.90;;;;;;5075398;28;20207;-69
2021/11/22 02:49:50;;;;;;;15.52;10.57;;;5.80;99.90;;;;;;5074974;28;20253;-69
2021/11/22 02:52:17;;;;;;;17.63;10.43;;;5.80;99.90;;;;;;5075517;28;20208;-69
2021/11/22 02:54:45;;;;;;;13.38;9.35;;;5.70;99.90;;;;;;5075025;28;20220;-69
2021/11/22 02:57:12;;;;;;;20.00;11.20;;;5.70;99.90;;;;;;5073889;28;20204;-69
2021/11/22 02:59:40;;;;;;;20.08;9.70;;;5.70;99.90;;;;;;5075111;28;20200;-69
2021/11/22 03:02:08;;;;;;;14.70;8.95;;;5.80;99.90;;;;;;5074914;28;20226;-69
2021/11/22 03:04:37;;;;;;;17.42;10.80;;;5.80;99.90;;;;;;5074965;28;20200;-69
2021/11/22 03:07:05;;;;;;;14.65;9.60;;;5.80;99.90;;;;;;5074842;28;20196;-69
2021/11/22 03:09:32;;;;;;;15.65;9.80;;;5.80;99.90;;;;;;5074761;28;20192;-68
2021/11/22 03:12:00;;;;;;;19.35;9.70;;;5.80;99.90;;;;;;5075021;28;20224;-68
2021/11/22 03:14:27;;;;;;;22.02;11.18;;;5.80;99.90;;;;;;5074558;28;20199;-68
2021/11/22 03:16:55;;;;;;;13.90;10.57;;;5.80;99.90;;;;;;5074810;28;20249;-71
2021/11/22 03:19:21;;;;;;;14.20;11.18;;;5.80;99.90;;;;;;5074652;28;20203;-68
2021/11/22 03:21:49;;;;;;;15.60;11.20;;;5.80;99.90;;;;;;5075003;28;20561;-68
2021/11/22 03:24:16;;;;;;;15.98;11.25;;;5.80;99.90;;;;;;5074896;28;20260;-68
2021/11/22 03:26:42;;;;;;;20.27;12.63;;;5.80;99.90;;;;;;5074476;28;20566;-68
2021/11/22 03:29:09;;;;;;;19.63;12.77;;;5.80;99.90;;;;;;5074436;28;20208;-68
2021/11/22 03:31:37;;;;;;;21.02;12.40;;;5.80;99.90;;;;;;5074612;28;20223;-68
2021/11/22 03:34:06;;;;;;;23.10;15.10;;;5.80;99.90;;;;;;5074908;28;20198;-68
2021/11/22 03:36:33;;;;;;;22.05;13.88;;;5.80;99.90;;;;;;5074352;28;20237;-68
2021/11/22 03:39:01;;;;;;;22.83;13.80;;;5.80;99.90;;;;;;5074291;28;20269;-68
2021/11/22 03:41:30;;;;;;;24.13;13.57;;;5.80;99.90;;;;;;5074420;28;20261;-68
2021/11/22 03:44:10;;;;;;;21.48;14.93;;;5.80;99.90;;;;;;5074507;28;20208;-68
2021/11/22 03:46:47;;;;;;;24.23;14.50;;;5.90;99.90;;;;;;5072734;28;20222;-68
2021/11/22 03:49:15;;;;;;;28.60;14.88;;;5.80;99.90;;;;;;5072799;28;20265;-68
2021/11/22 03:51:41;;;;;;;22.52;15.45;;;5.90;99.90;;;;;;5072862;28;20224;-68
2021/11/22 03:54:10;;;;;;;26.38;15.27;;;5.90;99.90;;;;;;5074212;28;20699;-68
2021/11/22 03:56:38;;;;;;;25.90;15.45;;;5.90;99.90;;;;;;5072940;28;20199;-68
2021/11/22 03:59:07;;;;;;;32.40;15.43;;;6.00;99.90;;;;;;5073366;28;20196;-69
2021/11/22 04:01:34;;;;;;;25.80;16.10;;;5.90;99.90;;;;;;5074144;28;20203;-68
2021/11/22 04:04:01;;;;;;;30.73;15.82;;;6.00;99.90;;;;;;5073900;28;20208;-68
2021/11/22 04:06:28;;;;;;;27.63;16.85;;;6.00;99.90;;;;;;5073956;28;20207;-68
2021/11/22 04:08:55;;;;;;;34.13;17.95;;;6.10;99.90;;;;;;5073619;28;20199;-68
2021/11/22 04:11:21;;;;;;;24.75;17.00;;;6.10;99.90;;;;;;5073889;28;20228;-68
2021/11/22 04:13:48;;;;;;;26.90;17.75;;;6.10;99.90;;;;;;5073967;28;20595;-69
2021/11/22 04:16:15;;;;;;;32.47;17.75;;;6.10;99.90;;;;;;5073580;28;20207;-68
2021/11/22 04:18:43;;;;;;;32.42;18.95;;;6.20;99.90;;;;;;5073954;28;20210;-69
2021/11/22 04:21:11;;;;;;;27.40;17.65;;;6.20;99.90;;;;;;5072517;28;20252;-68
2021/11/22 04:23:38;;;;;;;27.17;16.65;;;6.20;99.90;;;;;;5073579;28;20204;-68
2021/11/22 04:26:06;;;;;;;31.77;18.48;;;6.20;99.90;;;;;;5073928;28;20207;-68
2021/11/22 04:28:32;;;;;;;36.17;20.15;;;6.30;99.90;;;;;;5073731;28;20204;-68
2021/11/22 04:30:59;;;;;;;39.42;19.92;;;6.30;99.90;;;;;;5073681;28;20219;-68
2021/11/22 04:33:25;;;;;;;33.92;20.67;;;6.30;99.90;;;;;;5073475;28;20579;-68
2021/11/22 04:35:51;;;;;;;38.72;22.00;;;6.40;99.90;;;;;;5073712;28;20199;-68
2021/11/22 04:38:18;;;;;;;43.65;22.25;;;6.30;99.90;;;;;;5073347;28;20652;-68
2021/11/22 04:40:44;;;;;;;39.15;22.75;;;6.40;99.90;;;;;;5073337;28;20200;-68
2021/11/22 04:43:11;;;;;;;36.83;20.67;;;6.40;99.90;;;;;;5073408;28;20620;-68
2021/11/22 04:45:38;;;;;;;34.13;20.85;;;6.40;99.90;;;;;;5073116;28;20200;-68
2021/11/22 04:48:05;;;;;;;49.83;23.35;;;6.40;99.90;;;;;;5073273;28;20268;-68
2021/11/22 04:50:33;;;;;;;41.20;20.98;;;6.40;99.90;;;;;;5073157;28;20643;-68
2021/11/22 04:53:01;;;;;;;36.00;20.58;;;6.40;99.90;;;;;;5073266;28;20558;-68
2021/11/22 04:55:28;;;;;;;45.15;21.83;;;6.40;99.90;;;;;;5073163;28;20196;-68
2021/11/22 04:57:55;;;;;;;43.15;22.50;;;6.40;99.90;;;;;;5073538;28;20196;-69
2021/11/22 05:00:23;;;;;;;34.58;20.92;;;6.40;99.90;;;;;;5071912;28;20207;-68
2021/11/22 05:02:51;;;;;;;43.80;22.70;;;6.40;99.90;;;;;;5073146;28;20208;-68
2021/11/22 05:05:18;;;;;;;32.38;20.58;;;6.40;99.90;;;;;;5073456;28;20204;-68
2021/11/22 05:07:46;;;;;;;38.13;20.15;;;6.40;99.90;;;;;;5073343;28;20249;-68
2021/11/22 05:10:13;;;;;;;38.78;20.92;;;6.40;99.90;;;;;;5073012;28;20571;-68
2021/11/22 05:12:40;;;;;;;43.17;22.08;;;6.40;99.90;;;;;;5077505;28;20203;-69
2021/11/22 05:15:06;;;;;;;36.08;20.77;;;6.40;99.90;;;;;;5077764;28;20200;-68
2021/11/22 05:17:36;;;;;;;35.35;21.65;;;6.40;99.90;;;;;;5077388;28;20196;-68
2021/11/22 05:20:04;;;;;;;36.47;22.65;;;6.40;99.90;;;;;;5077295;28;20207;-67
2021/11/22 05:22:30;;;;;;;37.42;22.00;;;6.40;99.90;;;;;;5077050;28;20212;-68
2021/11/22 05:24:57;;;;;;;33.28;19.83;;;6.40;99.90;;;;;;5077112;28;20196;-67
2021/11/22 05:27:27;;;;;;;31.92;20.05;;;6.40;99.90;;;;;;5077269;28;20196;-67
2021/11/22 05:29:54;;;;;;;33.70;19.33;;;6.40;99.90;;;;;;5076998;28;20230;-67
2021/11/22 05:32:21;;;;;;;36.08;20.27;;;6.40;99.90;;;;;;5075588;28;20220;-68
2021/11/22 05:34:54;;;;;;;26.77;17.88;;;6.40;99.90;;;;;;5076956;28;20274;-68
2021/11/22 05:37:21;;;;;;;28.50;18.30;;;6.30;99.90;;;;;;5075379;28;20204;-68
2021/11/22 05:39:48;;;;;;;27.80;16.27;;;6.30;99.90;;;;;;5077120;28;20196;-69
2021/11/22 05:42:16;;;;;;;31.48;16.98;;;6.30;99.90;;;;;;5077245;28;20212;-69
2021/11/22 05:44:43;;;;;;;28.60;16.42;;;6.30;99.90;;;;;;5077114;28;20204;-69
2021/11/22 05:47:14;;;;;;;26.48;16.25;;;6.30;99.90;;;;;;5076893;28;20566;-69
2021/11/22 05:49:41;;;;;;;24.30;15.05;;;6.30;99.90;;;;;;5076942;28;20288;-68
2021/11/22 05:52:09;;;;;;;25.58;16.30;;;6.30;99.90;;;;;;5075460;28;20253;-68
2021/11/22 05:54:44;;;;;;;25.08;15.23;;;6.30;99.90;;;;;;5076749;28;20273;-68
2021/11/22 05:57:11;;;;;;;27.30;16.08;;;6.20;99.90;;;;;;5076924;28;20214;-68
2021/11/22 05:59:38;;;;;;;20.52;13.20;;;6.20;99.90;;;;;;5075036;28;20203;-68
2021/11/22 06:02:04;;;;;;;30.65;14.40;;;6.20;99.90;;;;;;5076506;28;20200;-69
2021/11/22 06:04:31;;;;;;;21.35;13.07;;;6.10;99.90;;;;;;5076972;28;20551;-68
2021/11/22 06:06:58;;;;;;;16.73;11.63;;;6.10;99.90;;;;;;5075320;28;20214;-68
2021/11/22 06:09:24;;;;;;;22.60;12.95;;;6.10;99.90;;;;;;5076274;28;20212;-69
2021/11/22 06:11:51;;;;;;;19.83;11.82;;;6.00;99.90;;;;;;5074515;28;20683;-69
2021/11/22 06:14:17;;;;;;;22.90;13.45;;;6.00;99.90;;;;;;5074981;28;20204;-68
2021/11/22 06:16:44;;;;;;;21.75;12.15;;;6.00;99.90;;;;;;5075994;28;20577;-68
2021/11/22 06:19:10;;;;;;;18.30;11.20;;;6.00;99.90;;;;;;5076042;28;20196;-68
2021/11/22 06:21:36;;;;;;;13.35;9.57;;;6.00;99.90;;;;;;5075631;28;20273;-68
2021/11/22 06:24:04;;;;;;;21.60;11.90;;;6.00;99.90;;;;;;5075737;28;20214;-68
2021/11/22 06:26:32;;;;;;;18.92;10.65;;;5.90;99.90;;;;;;5075856;28;20204;-68
2021/11/22 06:28:59;;;;;;;23.05;11.45;;;6.00;99.90;;;;;;5075956;28;20204;-68
2021/11/22 06:31:26;;;;;;;20.10;11.57;;;6.00;99.90;;;;;;5076106;28;20231;-68
2021/11/22 06:33:53;;;;;;;18.30;10.88;;;6.00;99.90;;;;;;5075576;28;20204;-68
2021/11/22 06:36:19;;;;;;;21.42;10.02;;;5.90;99.90;;;;;;5075557;28;20195;-68
2021/11/22 06:38:46;;;;;;;26.35;11.65;;;5.90;99.90;;;;;;5075653;28;20655;-68
2021/11/22 06:41:12;;;;;;;17.92;11.38;;;5.90;99.90;;;;;;5075638;28;20204;-68
2021/11/22 06:43:39;;;;;;;19.27;11.68;;;5.90;99.90;;;;;;5074696;28;20256;-68
2021/11/22 06:46:06;;;;;;;15.63;10.85;;;6.00;99.90;;;;;;5075368;28;20249;-68
2021/11/22 06:48:32;;;;;;;19.27;11.13;;;6.00;99.90;;;;;;5075585;28;20251;-68
2021/11/22 06:50:59;;;;;;;21.30;9.95;;;6.00;99.90;;;;;;5075419;28;20223;-69
2021/11/22 06:53:25;;;;;;;13.70;9.40;;;6.00;99.90;;;;;;5075393;28;20220;-69
2021/11/22 06:55:52;;;;;;;14.55;9.30;;;6.00;99.90;;;;;;5075396;28;20200;-68
2021/11/22 06:58:19;;;;;;;17.92;10.90;;;6.00;99.90;;;;;;5075120;28;20208;-68
2021/11/22 07:00:46;;;;;;;16.02;10.25;;;6.00;99.90;;;;;;5075066;28;20196;-68
2021/11/22 07:03:12;;;;;;;13.55;10.00;;;6.00;99.90;;;;;;5075566;28;20196;-68
2021/11/22 07:05:39;;;;;;;17.17;9.27;;;5.90;99.90;;;;;;5073696;28;20204;-68
2021/11/22 07:08:07;;;;;;;14.93;8.93;;;5.90;99.90;;;;;;5074949;28;20204;-68
2021/11/22 07:10:35;;;;;;;15.82;9.32;;;5.90;99.90;;;;;;5074985;28;20200;-68
2021/11/22 07:13:02;;;;;;;21.58;9.18;;;5.90;99.90;;;;;;5074735;28;20691;-68
2021/11/22 07:15:35;;;;;;;13.38;9.18;;;5.90;99.90;;;;;;5075205;28;20203;-68
2021/11/22 07:18:03;;;;;;;18.35;9.25;;;5.80;99.90;;;;;;5075310;28;20196;-68
2021/11/22 07:20:30;;;;;;;13.35;7.50;;;5.80;99.90;;;;;;5057016;28;20207;-68
2021/11/22 07:22:57;;;;;;;16.13;8.18;;;5.80;99.90;;;;;;5074606;28;20248;-68
2021/11/22 07:25:23;;;;;;;13.65;8.60;;;5.80;99.90;;;;;;5074538;28;20200;-68
2021/11/22 07:27:51;;;;;;;21.50;9.20;;;5.90;99.90;;;;;;5074726;28;20200;-68
2021/11/22 07:30:21;;;;;;;19.95;9.45;;;5.90;99.90;;;;;;5074880;28;20254;-69
2021/11/22 07:32:53;;;;;;;12.80;8.38;;;5.90;99.90;;;;;;5073865;28;20573;-69
2021/11/22 07:35:23;;;;;;;10.13;7.80;;;5.90;99.90;;;;;;5074238;28;20200;-69
2021/11/22 07:37:50;;;;;;;18.00;7.88;;;5.90;99.90;;;;;;5074434;28;20613;-69
2021/11/22 07:40:21;;;;;;;9.85;7.38;;;5.90;99.90;;;;;;5074366;28;20203;-69
2021/11/22 07:42:52;;;;;;;10.13;6.60;;;5.90;99.90;;;;;;5074251;28;20204;-69
2021/11/22 07:45:20;;;;;;;12.48;7.55;;;5.90;99.90;;;;;;5074164;28;20207;-69
2021/11/22 07:47:47;;;;;;;22.55;8.00;;;5.90;99.90;;;;;;5074442;28;20212;-69
2021/11/22 07:50:14;;;;;;;10.73;7.50;;;5.90;99.90;;;;;;5074048;28;20601;-69
2021/11/22 07:52:40;;;;;;;13.25;6.78;;;6.00;99.90;;;;;;5073985;28;20294;-69
2021/11/22 07:55:07;;;;;;;14.65;8.25;;;6.00;99.90;;;;;;5073941;28;20216;-69
2021/11/22 07:57:33;;;;;;;17.83;7.97;;;6.00;99.90;;;;;;5074101;28;20249;-69
2021/11/22 08:00:00;;;;;;;12.48;6.72;;;6.00;99.90;;;;;;5073650;28;20207;-69
2021/11/22 08:02:27;;;;;;;14.05;7.82;;;6.10;99.90;;;;;;5074099;28;20636;-69
2021/11/22 08:04:53;;;;;;;17.48;7.53;;;6.10;99.90;;;;;;5073794;28;20206;-68
2021/11/22 08:07:20;;;;;;;15.90;7.57;;;6.10;99.90;;;;;;5072973;28;20211;-68
2021/11/22 08:09:58;;;;;;;13.27;7.40;;;6.10;99.90;;;;;;5073443;28;20203;-68
2021/11/22 08:12:30;;;;;;;12.60;7.68;;;6.10;99.90;;;;;;5073541;28;20671;-68
2021/11/22 08:15:03;;;;;;;13.13;8.43;;;6.10;99.90;;;;;;5073593;28;20200;-68
2021/11/22 08:17:30;;;;;;;15.18;7.97;;;6.20;99.90;;;;;;5073725;28;20192;-68
2021/11/22 08:19:57;;;;;;;13.90;8.77;;;6.10;99.90;;;;;;5072598;28;20648;-69
2021/11/22 08:22:25;;;;;;;20.95;10.77;;;6.10;99.90;;;;;;5073337;28;20610;-68
2021/11/22 08:24:53;;;;;;;16.17;8.05;;;6.10;99.90;;;;;;5073555;28;20264;-68
2021/11/22 08:27:22;;;;;;;11.57;7.25;;;6.10;99.90;;;;;;5073129;28;20210;-69
2021/11/22 08:29:50;;;;;;;11.55;8.00;;;6.10;99.90;;;;;;5073339;28;20208;-69
2021/11/22 08:32:18;;;;;;;14.25;7.25;;;6.10;99.90;;;;;;5073360;28;20216;-67
2021/11/22 08:34:45;;;;;;;11.65;7.13;;;6.10;99.90;;;;;;5073649;28;20203;-68
2021/11/22 08:37:12;;;;;;;15.27;7.63;;;6.10;99.90;;;;;;5073502;28;20196;-68
2021/11/22 08:39:39;;;;;;;18.20;8.65;;;6.20;99.90;;;;;;5073161;28;20203;-68
2021/11/22 08:42:06;;;;;;;16.20;9.57;;;6.20;99.90;;;;;;5073584;28;20253;-68
2021/11/22 08:44:33;;;;;;;12.25;6.32;;;6.30;99.90;;;;;;5073393;28;20200;-68
2021/11/22 08:47:00;;;;;;;18.40;7.60;;;6.30;99.90;;;;;;5073365;28;20204;-69
2021/11/22 08:49:27;;;;;;;9.55;6.72;;;6.20;99.90;;;;;;5073057;28;20239;-69
2021/11/22 08:51:54;;;;;;;10.88;7.50;;;6.20;99.90;;;;;;5073690;28;20601;-69
2021/11/22 08:54:21;;;;;;;11.98;7.97;;;6.30;99.90;;;;;;5073012;28;20216;-69
2021/11/22 08:56:48;;;;;;;13.07;7.65;;;6.40;99.90;;;;;;5073400;28;20196;-68
2021/11/22 08:59:16;;;;;;;13.75;7.65;;;6.40;99.90;;;;;;5073275;28;20196;-69
2021/11/22 09:01:44;;;;;;;20.95;8.75;;;6.50;99.90;;;;;;5073076;28;20621;-69
2021/11/22 09:04:10;;;;;;;9.63;7.60;;;6.50;99.90;;;;;;5072783;28;20686;-68
2021/11/22 09:06:37;;;;;;;22.48;8.15;;;6.60;99.90;;;;;;5073248;28;20226;-68
2021/11/22 09:09:06;;;;;;;17.15;8.40;;;6.50;99.90;;;;;;5073076;28;20572;-68
2021/11/22 09:11:34;;;;;;;13.15;6.90;;;6.50;99.90;;;;;;5072999;28;20223;-68
2021/11/22 09:14:00;;;;;;;14.50;6.30;;;6.50;99.90;;;;;;5073236;28;20200;-69
2021/11/22 09:16:27;;;;;;;8.65;6.85;;;6.50;99.90;;;;;;5072887;28;20200;-68
2021/11/22 09:18:59;;;;;;;19.27;8.18;;;6.60;99.90;;;;;;5055413;28;20192;-69
2021/11/22 09:21:27;;;;;;;28.08;8.50;;;6.60;99.90;;;;;;5072827;28;20188;-68
2021/11/22 09:23:54;;;;;;;12.25;6.95;;;6.60;99.90;;;;;;5072805;28;20256;-68
2021/11/22 09:26:22;;;;;;;16.00;10.50;;;6.80;99.90;;;;;;5072531;28;20313;-68
2021/11/22 09:28:49;;;;;;;13.20;8.40;;;6.90;99.90;;;;;;5072692;28;20204;-68
2021/11/22 09:31:16;;;;;;;12.60;8.45;;;6.80;99.90;;;;;;5072617;28;20686;-69
2021/11/22 09:33:44;;;;;;;10.32;7.10;;;6.80;99.90;;;;;;5072958;28;20200;-69
2021/11/22 09:36:11;;;;;;;9.25;6.40;;;6.70;99.90;;;;;;5072691;28;20199;-69
2021/11/22 09:38:38;;;;;;;19.20;6.38;;;6.70;99.90;;;;;;5069198;28;20209;-68
2021/11/22 09:41:05;;;;;;;8.68;5.97;;;6.70;99.90;;;;;;5052665;28;20204;-68
2021/11/22 09:43:32;;;;;;;12.88;6.95;;;6.70;99.90;;;;;;5052602;28;20200;-68
2021/11/22 09:45:59;;;;;;;15.10;7.15;;;6.70;99.90;;;;;;5052790;28;20200;-68
2021/11/22 09:48:26;;;;;;;11.73;7.43;;;6.70;99.90;;;;;;5052491;28;20212;-68
2021/11/22 09:50:54;;;;;;;11.23;7.78;;;6.70;99.90;;;;;;5059390;28;20200;-68
2021/11/22 09:53:21;;;;;;;16.02;6.75;;;6.70;99.90;;;;;;5072253;28;20235;-68
2021/11/22 09:55:48;;;;;;;10.15;5.75;;;6.70;99.90;;;;;;5071444;28;20724;-68
2021/11/22 09:58:15;;;;;;;16.10;7.68;;;6.60;99.90;;;;;;5075807;28;20204;-68
2021/11/22 10:00:48;;;;;;;10.73;7.57;;;6.60;99.90;;;;;;5075981;28;20690;-68
2021/11/22 10:03:18;;;;;;;8.00;6.15;;;6.60;99.90;;;;;;5076208;28;20256;-68
2021/11/22 10:05:45;;;;;;;13.02;7.68;;;6.60;99.90;;;;;;5076220;28;20196;-69
2021/11/22 10:08:17;;;;;;;14.40;7.43;;;6.60;99.90;;;;;;5075879;28;20261;-69
2021/11/22 10:10:49;;;;;;;8.30;6.70;;;6.70;99.90;;;;;;5075990;28;20192;-69
2021/11/22 10:13:36;;;;;;;11.38;6.55;;;6.70;99.90;;;;;;5075942;28;20242;-68
2021/11/22 10:16:12;;;;;;;13.27;6.65;;;6.80;99.90;;;;;;5075848;28;20207;-68
2021/11/22 10:18:50;;;;;;;13.77;7.35;;;6.80;99.90;;;;;;5076052;28;20557;-69
2021/11/22 10:21:35;;;;;;;16.30;7.70;;;6.90;99.90;;;;;;5075860;28;20674;-69
2021/11/22 10:24:06;;;;;;;15.95;7.55;;;7.10;99.90;;;;;;5075842;28;20628;-69
2021/11/22 10:26:45;;;;;;;16.42;6.65;;;7.30;99.90;;;;;;5075599;28;20199;-69
2021/11/22 10:29:29;;;;;;;9.20;6.97;;;7.40;99.90;;;;;;5075849;28;20206;-69
2021/11/22 10:31:58;;;;;;;8.95;6.35;;;7.60;99.90;;;;;;5075780;28;20220;-69
2021/11/22 10:34:24;;;;;;;12.73;5.90;;;7.90;99.90;;;;;;5075754;28;20208;-69
2021/11/22 10:37:06;;;;;;;10.52;5.45;;;7.80;99.90;;;;;;5074071;28;20243;-69
2021/11/22 10:39:33;;;;;;;8.20;5.18;;;7.90;99.90;;;;;;5075235;28;20542;-69
2021/11/22 10:42:01;;;;;;;8.57;4.88;;;8.30;99.90;;;;;;5075668;28;20294;-69
2021/11/22 10:44:31;;;;;;;11.27;5.68;;;8.60;99.90;;;;;;5075246;28;20744;-69
2021/11/22 10:47:10;;;;;;;14.15;5.30;;;8.70;99.90;;;;;;5075583;28;20561;-69
2021/11/22 10:49:43;;;;;;;19.35;5.82;;;8.80;99.90;;;;;;5075108;28;20231;-69
2021/11/22 10:52:26;;;;;;;6.32;5.10;;;8.70;99.90;;;;;;5059639;28;20231;-69
2021/11/22 10:55:10;;;;;;;6.13;5.18;;;8.30;99.90;;;;;;5054778;28;20220;-69
2021/11/22 10:57:42;;;;;;;15.00;6.30;;;8.20;99.90;;;;;;5055406;28;20185;-69
2021/11/22 11:00:17;;;;;;;20.55;6.65;;;8.30;99.90;;;;;;5055179;28;20207;-69
2021/11/22 11:02:45;;;;;;;14.77;6.78;;;8.30;99.90;;;;;;5055207;28;20223;-69
2021/11/22 11:05:35;;;;;;;9.77;5.40;;;8.00;99.90;;;;;;5055039;28;20619;-69
2021/11/22 11:08:12;;;;;;;8.80;6.07;;;8.00;99.90;;;;;;5054666;28;20567;-69
2021/11/22 11:10:40;;;;;;;11.77;5.78;;;8.00;99.90;;;;;;5055074;28;20188;-69
2021/11/22 11:13:07;;;;;;;8.52;5.53;;;7.80;99.90;;;;;;5054868;28;20277;-69
2021/11/22 11:15:34;;;;;;;12.35;5.25;;;7.80;99.90;;;;;;5054915;28;20257;-69
2021/11/22 11:18:01;;;;;;;15.13;7.20;;;8.10;99.90;;;;;;5055064;28;20567;-69
2021/11/22 11:20:29;;;;;;;11.02;5.07;;;8.20;99.90;;;;;;5055116;28;20230;-69
2021/11/22 11:22:57;;;;;;;9.02;5.72;;;8.30;99.90;;;;;;5053725;28;20231;-69
2021/11/22 11:25:25;;;;;;;9.02;5.50;;;8.50;99.90;;;;;;5054683;28;20208;-69
2021/11/22 11:27:53;;;;;;;8.20;5.03;;;8.70;99.90;;;;;;5054939;28;20249;-69
2021/11/22 11:30:21;;;;;;;7.68;5.43;;;8.70;99.90;;;;;;5054686;28;20239;-69
2021/11/22 11:32:50;;;;;;;10.70;5.50;;;8.60;99.90;;;;;;5054668;28;20622;-69
2021/11/22 11:35:18;;;;;;;13.13;8.00;;;8.90;99.90;;;;;;5054772;28;20675;-68
2021/11/22 11:38:07;;;;;;;7.05;6.15;;;9.00;99.90;;;;;;5054696;28;20197;-69
2021/11/22 11:40:55;;;;;;;5.40;4.90;;;9.00;99.90;;;;;;5053080;28;20196;-68
2021/11/22 11:43:58;;;;;;;8.77;5.03;;;9.60;99.90;;;;;;5054071;28;20189;-68
2021/11/22 11:47:00;;;;;;;8.93;5.45;;;9.20;99.90;;;;;;5054491;28;20200;-68
2021/11/22 11:49:34;;;;;;;18.15;5.40;;;9.00;99.90;;;;;;5053789;28;20232;-68
2021/11/22 11:52:19;;;;;;;8.68;5.45;;;8.90;99.90;;;;;;5054150;28;20669;-69
2021/11/22 11:54:46;;;;;;;6.60;5.45;;;8.60;99.90;;;;;;5054075;28;20275;-68
2021/11/22 11:57:20;;;;;;;8.70;7.40;;;8.50;99.90;;;;;;5053982;28;20682;-68
2021/11/22 11:59:47;;;;;;;5.93;4.88;;;8.70;99.90;;;;;;5053804;28;20636;-68
2021/11/22 12:02:26;;;;;;;9.52;4.80;;;8.70;99.90;;;;;;5054129;28;20652;-69
2021/11/22 12:05:08;;;;;;;7.47;3.85;;;8.90;99.90;;;;;;5053489;28;20196;-69
2021/11/22 12:07:48;;;;;;;8.32;4.88;;;8.70;99.90;;;;;;5053889;28;20259;-70
2021/11/22 12:10:25;;;;;;;11.77;4.65;;;9.00;99.90;;;;;;5053003;28;20193;-70
2021/11/22 12:12:55;;;;;;;3.45;3.15;;;9.00;99.90;;;;;;5053528;28;20239;-69
2021/11/22 12:15:25;;;;;;;4.20;3.28;;;9.60;99.90;;;;;;5053450;28;20292;-70
2021/11/22 12:17:58;;;;;;;2.45;2.13;;;9.90;99.90;;;;;;5035882;28;20208;-70
2021/11/22 12:20:24;;;;;;;11.23;3.35;;;9.60;99.90;;;;;;5052869;28;20207;-70
2021/11/22 12:22:53;;;;;;;4.28;3.40;;;9.20;99.90;;;;;;5053895;28;20262;-70
2021/11/22 12:25:44;;;;;;;5.88;3.00;;;9.10;99.90;;;;;;5053749;28;20270;-70
2021/11/22 12:28:19;;;;;;;2.60;2.40;;;9.00;99.90;;;;;;5053465;28;20188;-69
2021/11/22 12:30:46;;;;;;;7.13;3.40;;;9.00;99.90;;;;;;5053818;28;20200;-70
2021/11/22 12:33:24;;;;;;;6.00;2.85;;;8.80;99.90;;;;;;5053256;28;20278;-69
2021/11/22 12:35:55;;;;;;;5.68;2.47;;;8.90;99.90;;;;;;5053226;28;20680;-70
2021/11/22 12:38:27;;;;;;;7.80;2.58;;;9.00;99.90;;;;;;5051936;28;20204;-70
2021/11/22 12:41:00;;;;;;;4.53;2.83;;;9.30;99.90;;;;;;5053461;28;20204;-70
2021/11/22 12:43:36;;;;;;;2.38;2.13;;;9.30;99.90;;;;;;5052475;28;20572;-68
2021/11/22 12:46:04;;;;;;;2.45;2.25;;;9.80;99.90;;;;;;5053664;28;20207;-69
2021/11/22 12:48:39;;;;;;;2.40;2.20;;;10.20;99.90;;;;;;5051888;28;20197;-70
2021/11/22 12:51:11;;;;;;;2.72;2.53;;;10.00;99.90;;;;;;5053121;28;20555;-69
2021/11/22 12:53:41;;;;;;;1.75;1.65;;;9.40;99.90;;;;;;5053022;28;20641;-69
2021/11/22 12:56:11;;;;;;;2.30;2.10;;;9.00;99.90;;;;;;5053522;28;20208;-69